createdAt,value
2022-09-02T00:01:19.498Z,61.51
2022-09-02T00:03:47.602Z,60.58
2022-09-02T00:06:15.252Z,62.66
2022-09-02T00:08:43.019Z,61.31
2022-09-02T00:11:14.429Z,60.55
2022-09-02T00:13:43.297Z,60.25
2022-09-02T00:16:11.475Z,59.40
2022-09-02T00:18:39.712Z,59.66
2022-09-02T00:21:13.685Z,58.94
2022-09-02T00:23:41.766Z,58.68
2022-09-02T00:26:08.454Z,59.17
2022-09-02T00:28:35.642Z,57.88
2022-09-02T00:31:02.511Z,58.54
2022-09-02T00:33:29.790Z,59.24
2022-09-02T00:35:59.346Z,59.37
2022-09-02T00:38:26.087Z,59.70
2022-09-02T00:40:54.034Z,59.89
2022-09-02T00:43:41.999Z,59.99
2022-09-02T00:46:10.139Z,60.26
2022-09-02T00:48:41.357Z,59.62
2022-09-02T00:51:09.916Z,60.16
2022-09-02T00:53:39.520Z,61.04
2022-09-02T00:56:13.131Z,61.53
2022-09-02T00:58:43.098Z,63.07
2022-09-02T01:01:11.773Z,62.87
2022-09-02T01:03:41.046Z,62.61
2022-09-02T01:06:10.334Z,61.84
2022-09-02T01:08:39.317Z,62.25
2022-09-02T01:11:06.766Z,62.00
2022-09-02T01:13:39.068Z,63.95
2022-09-02T01:16:17.859Z,64.27
2022-09-02T01:18:50.370Z,64.16
2022-09-02T01:21:17.863Z,64.56
2022-09-02T01:23:46.596Z,63.04
2022-09-02T01:26:13.619Z,63.32
2022-09-02T01:28:40.839Z,63.73
2022-09-02T01:31:07.826Z,65.43
2022-09-02T01:33:35.046Z,67.22
2022-09-02T01:36:04.307Z,68.30
2022-09-02T01:38:32.624Z,70.29
2022-09-02T01:40:59.914Z,70.10
2022-09-02T01:43:28.293Z,70.19
2022-09-02T01:45:57.484Z,71.38
2022-09-02T01:48:24.570Z,73.49
2022-09-02T01:50:59.128Z,72.71
2022-09-02T01:53:26.533Z,75.08
2022-09-02T01:55:53.313Z,73.37
2022-09-02T01:58:20.434Z,74.34
2022-09-02T02:00:48.195Z,72.83
2022-09-02T02:03:15.422Z,71.70
2022-09-02T02:05:42.380Z,70.47
2022-09-02T02:08:09.524Z,73.21
2022-09-02T02:10:36.819Z,74.18
2022-09-02T02:13:03.701Z,74.08
2022-09-02T02:17:56.311Z,73.17
2022-09-02T02:20:23.173Z,74.61
2022-09-02T02:22:49.942Z,73.24
2022-09-02T02:25:17.179Z,71.23
2022-09-02T02:27:44.923Z,70.20
2022-09-02T02:30:13.936Z,69.83
2022-09-02T02:32:41.099Z,69.70
2022-09-02T02:35:08.445Z,69.18
2022-09-02T02:37:35.209Z,68.96
2022-09-02T02:40:02.353Z,69.67
2022-09-02T02:42:29.165Z,69.50
2022-09-02T02:44:58.450Z,70.27
2022-09-02T02:47:25.226Z,70.23
2022-09-02T02:49:51.880Z,69.11
2022-09-02T02:52:18.667Z,69.64
2022-09-02T02:54:45.475Z,69.57
2022-09-02T02:57:12.440Z,68.93
2022-09-02T02:59:39.302Z,69.54
2022-09-02T03:02:06.666Z,69.38
2022-09-02T03:04:34.270Z,71.03
2022-09-02T03:07:01.045Z,70.75
2022-09-02T03:09:27.772Z,71.72
2022-09-02T03:11:54.507Z,70.68
2022-09-02T03:14:21.120Z,70.25
2022-09-02T03:16:47.888Z,70.09
2022-09-02T03:19:14.667Z,70.13
2022-09-02T03:21:42.141Z,69.37
2022-09-02T03:24:12.021Z,72.58
2022-09-02T03:26:40.665Z,70.69
2022-09-02T03:29:07.415Z,70.72
2022-09-02T03:31:34.305Z,70.31
2022-09-02T03:34:01.600Z,70.92
2022-09-02T03:36:32.023Z,71.00
2022-09-02T03:38:59.705Z,71.51
2022-09-02T03:41:26.641Z,69.86
2022-09-02T03:43:53.357Z,70.03
2022-09-02T03:46:20.316Z,69.98
2022-09-02T03:48:47.904Z,69.70
2022-09-02T03:51:15.178Z,71.65
2022-09-02T03:53:41.970Z,72.20
2022-09-02T03:56:12.695Z,71.22
2022-09-02T03:58:40.377Z,70.74
2022-09-02T04:01:12.624Z,71.28
2022-09-02T04:03:39.306Z,71.71
2022-09-02T04:06:06.434Z,71.08
2022-09-02T04:08:33.045Z,70.31
2022-09-02T04:10:59.650Z,70.55
2022-09-02T04:13:26.271Z,70.01
2022-09-02T04:15:53.071Z,71.02
2022-09-02T04:18:19.832Z,71.51
2022-09-02T04:20:46.519Z,71.25
2022-09-02T04:23:13.343Z,71.63
2022-09-02T04:25:42.111Z,70.69
2022-09-02T04:28:09.667Z,70.70
2022-09-02T04:30:39.887Z,70.48
2022-09-02T04:33:06.512Z,70.63
2022-09-02T04:35:33.315Z,72.02
2022-09-02T04:38:00.146Z,73.13
2022-09-02T04:40:27.866Z,72.51
2022-09-02T04:42:55.673Z,72.48
2022-09-02T04:45:24.637Z,72.39
2022-09-02T04:47:54.540Z,72.39
2022-09-02T04:50:21.452Z,71.05
2022-09-02T04:52:48.066Z,69.60
2022-09-02T04:55:14.865Z,69.71
2022-09-02T04:57:42.528Z,69.43
2022-09-02T05:00:10.395Z,70.10
2022-09-02T05:02:37.142Z,70.94
2022-09-02T05:05:04.073Z,70.70
2022-09-02T05:07:30.918Z,73.19
2022-09-02T05:09:59.129Z,73.89
2022-09-02T05:12:28.225Z,74.36
2022-09-02T05:14:57.122Z,74.57
2022-09-02T05:17:24.008Z,73.60
2022-09-02T05:19:50.721Z,74.29
2022-09-02T05:22:18.021Z,76.05
2022-09-02T05:24:45.146Z,76.03
2022-09-02T05:27:13.108Z,76.02
2022-09-02T05:29:42.918Z,73.08
2022-09-02T05:32:11.896Z,73.32
2022-09-02T05:34:38.864Z,73.71
2022-09-02T05:37:05.959Z,73.42
2022-09-02T05:39:32.755Z,72.32
2022-09-02T05:41:59.762Z,73.17
2022-09-02T05:44:26.542Z,73.78
2022-09-02T05:46:53.318Z,74.35
2022-09-02T05:49:21.562Z,74.31
2022-09-02T05:51:54.341Z,74.05
2022-09-02T05:54:30.619Z,73.77
2022-09-02T05:57:00.911Z,72.22
2022-09-02T05:59:30.088Z,71.69
2022-09-02T06:01:57.929Z,71.72
2022-09-02T06:04:26.189Z,72.64
2022-09-02T06:06:52.943Z,72.53
2022-09-02T06:09:22.766Z,72.55
2022-09-02T06:11:50.850Z,72.96
2022-09-02T06:14:21.761Z,71.86
2022-09-02T06:16:50.478Z,71.62
2022-09-02T06:19:20.314Z,71.08
2022-09-02T06:21:51.333Z,71.86
2022-09-02T06:24:18.145Z,72.14
2022-09-02T06:26:44.848Z,71.34
2022-09-02T06:29:11.859Z,71.05
2022-09-02T06:31:42.340Z,71.68
2022-09-02T06:34:12.478Z,71.04
2022-09-02T06:36:39.666Z,69.39
2022-09-02T06:39:06.742Z,68.00
2022-09-02T06:41:34.769Z,65.77
2022-09-02T06:44:06.940Z,66.64
2022-09-02T06:46:36.598Z,65.21
2022-09-02T06:49:05.742Z,67.29
2022-09-02T06:51:36.741Z,65.10
2022-09-02T06:54:05.286Z,65.54
2022-09-02T06:56:32.734Z,66.54
2022-09-02T06:59:00.061Z,68.81
2022-09-02T07:01:30.449Z,66.37
2022-09-02T07:04:16.469Z,64.78
2022-09-02T07:06:47.891Z,65.70
2022-09-02T07:09:18.230Z,63.92
2022-09-02T07:11:48.717Z,64.26
2022-09-02T07:14:17.225Z,63.82
2022-09-02T07:16:50.867Z,63.39
2022-09-02T07:19:20.811Z,63.81
2022-09-02T07:21:49.501Z,63.20
2022-09-02T07:24:17.698Z,64.05
2022-09-02T07:26:45.449Z,63.13
2022-09-02T07:29:12.811Z,63.54
2022-09-02T07:31:43.086Z,64.87
2022-09-02T07:34:10.684Z,63.77
2022-09-02T07:36:38.141Z,62.53
2022-09-02T07:39:07.994Z,62.03
2022-09-02T07:41:35.565Z,61.12
2022-09-02T07:44:03.271Z,60.56
2022-09-02T07:46:31.648Z,61.98
2022-09-02T07:48:59.853Z,60.81
2022-09-02T07:51:27.561Z,60.36
2022-09-02T07:53:57.572Z,58.25
2022-09-02T07:56:24.353Z,61.61
2022-09-02T07:58:51.265Z,61.70
2022-09-02T08:01:23.172Z,61.44
2022-09-02T08:03:50.455Z,62.02
2022-09-02T08:06:17.296Z,63.16
2022-09-02T08:08:48.698Z,61.01
2022-09-02T08:11:15.392Z,63.89
2022-09-02T08:13:42.103Z,63.80
2022-09-02T08:16:09.187Z,64.11
2022-09-02T08:18:36.370Z,60.87
2022-09-02T08:21:04.102Z,61.36
2022-09-02T08:23:37.158Z,62.25
2022-09-02T08:26:05.757Z,61.05
2022-09-02T08:28:32.687Z,64.79
2022-09-02T08:30:59.590Z,60.55
2022-09-02T08:33:26.529Z,59.54
2022-09-02T08:35:53.273Z,61.35
2022-09-02T08:38:22.142Z,59.51
2022-09-02T08:40:51.233Z,61.62
2022-09-02T08:43:26.771Z,60.98
2022-09-02T08:45:56.307Z,63.11
2022-09-02T08:48:45.376Z,63.22
2022-09-02T08:51:37.359Z,59.55
2022-09-02T08:54:16.377Z,59.51
2022-09-02T08:56:43.043Z,60.04
2022-09-02T08:59:10.372Z,61.65
2022-09-02T09:01:47.923Z,62.73
2022-09-02T09:04:51.248Z,57.61
2022-09-02T09:07:27.656Z,58.10
2022-09-02T09:10:09.715Z,62.17
2022-09-02T09:13:00.789Z,59.23
2022-09-02T09:15:56.501Z,59.01
2022-09-02T09:18:37.326Z,58.23
2022-09-02T09:21:04.501Z,58.62
2022-09-02T09:23:34.814Z,59.09
2022-09-02T09:26:11.607Z,59.05
2022-09-02T09:28:43.703Z,58.23
2022-09-02T09:31:17.649Z,57.89
2022-09-02T09:34:07.278Z,60.23
2022-09-02T09:36:39.883Z,60.06
2022-09-02T09:39:30.148Z,58.76
2022-09-02T09:42:10.074Z,59.43
2022-09-02T09:44:45.195Z,58.10
2022-09-02T09:47:20.015Z,58.69
2022-09-02T09:49:50.297Z,59.67
2022-09-02T09:52:28.881Z,58.01
2022-09-02T09:55:14.323Z,58.36
2022-09-02T09:57:44.786Z,58.29
2022-09-02T10:00:16.423Z,57.22
2022-09-02T10:02:55.532Z,58.66
2022-09-02T10:05:25.209Z,58.34
2022-09-02T10:07:59.549Z,57.36
2022-09-02T10:10:29.264Z,55.92
2022-09-02T10:13:16.676Z,58.02
2022-09-02T10:16:14.414Z,57.40
2022-09-02T10:18:41.061Z,55.17
2022-09-02T10:21:24.655Z,57.12
2022-09-02T10:24:11.389Z,58.05
2022-09-02T10:26:42.588Z,56.98
2022-09-02T10:29:11.987Z,58.01
2022-09-02T10:31:56.774Z,56.37
2022-09-02T10:34:46.401Z,57.77
2022-09-02T10:37:19.290Z,56.46
2022-09-02T10:40:08.507Z,60.13
2022-09-02T10:42:52.081Z,60.15
2022-09-02T10:45:46.645Z,57.15
2022-09-02T10:48:16.119Z,59.62
2022-09-02T10:50:54.068Z,59.03
2022-09-02T10:53:34.409Z,57.76
2022-09-02T10:56:16.004Z,57.85
2022-09-02T10:58:56.132Z,56.96
2022-09-02T11:01:28.248Z,55.55
2022-09-02T11:04:03.963Z,57.29
2022-09-02T11:06:58.637Z,57.10
2022-09-02T11:09:40.653Z,55.00
2022-09-02T11:12:09.135Z,55.13
2022-09-02T11:14:51.491Z,55.66
2022-09-02T11:17:38.346Z,54.54
2022-09-02T11:20:14.315Z,54.71
2022-09-02T11:22:55.482Z,55.41
2022-09-02T11:25:58.188Z,55.93
2022-09-02T11:28:33.219Z,55.40
2022-09-02T11:31:38.838Z,54.72
2022-09-02T11:34:35.877Z,54.53
2022-09-02T11:37:13.930Z,54.02
2022-09-02T11:39:59.046Z,54.24
2022-09-02T11:42:44.822Z,55.27
2022-09-02T11:45:39.385Z,54.27
2022-09-02T11:48:08.824Z,54.02
2022-09-02T11:50:53.781Z,53.92
2022-09-02T11:53:28.404Z,53.48
2022-09-02T11:56:05.360Z,55.53
2022-09-02T11:58:39.598Z,53.43
2022-09-02T12:01:15.226Z,54.76
2022-09-02T12:07:08.777Z,52.60
2022-09-02T12:09:48.156Z,51.20
2022-09-02T12:12:36.439Z,51.77
2022-09-02T12:15:14.994Z,51.52
2022-09-02T12:17:46.269Z,52.73
2022-09-02T12:20:40.018Z,52.00
2022-09-02T12:23:09.511Z,52.76
2022-09-02T12:25:49.643Z,51.74
2022-09-02T12:28:24.186Z,52.73
2022-09-02T12:31:08.862Z,52.32
2022-09-02T12:33:36.857Z,51.59
2022-09-02T12:36:05.759Z,51.28
2022-09-02T12:38:42.866Z,50.92
2022-09-02T12:41:25.161Z,50.59
2022-09-02T12:44:22.842Z,50.21
2022-09-02T12:47:00.674Z,50.27
2022-09-02T12:49:37.754Z,49.89
2022-09-02T12:52:12.016Z,51.61
2022-09-02T12:54:38.564Z,51.59
2022-09-02T12:57:09.776Z,53.17
2022-09-02T12:59:40.248Z,51.61
2022-09-02T13:02:31.509Z,49.94
2022-09-02T13:05:10.320Z,49.97
2022-09-02T13:08:04.205Z,51.40
2022-09-02T13:10:52.725Z,54.83
2022-09-02T13:13:38.061Z,55.98
2022-09-02T13:16:30.654Z,54.96
2022-09-02T13:19:16.659Z,53.83
2022-09-02T13:22:02.629Z,54.13
2022-09-02T13:24:57.107Z,55.28
2022-09-02T13:27:29.382Z,58.88
2022-09-02T13:30:14.131Z,67.60
2022-09-02T13:32:40.979Z,70.14
2022-09-02T13:35:23.985Z,68.45
2022-09-02T13:37:59.695Z,71.22
2022-09-02T13:40:28.143Z,71.84
2022-09-02T13:43:01.775Z,73.48
2022-09-02T13:45:31.998Z,75.50
2022-09-02T13:48:01.780Z,75.98
2022-09-02T13:50:31.285Z,76.08
2022-09-02T13:55:58.154Z,74.51
2022-09-02T13:58:31.029Z,74.77
2022-09-02T14:01:02.296Z,75.23
2022-09-02T14:03:33.089Z,74.51
2022-09-02T14:06:01.090Z,74.60
2022-09-02T14:08:30.765Z,73.81
2022-09-02T14:10:58.473Z,72.64
2022-09-02T14:13:26.138Z,69.64
2022-09-02T14:15:52.854Z,70.26
2022-09-02T14:18:22.121Z,73.53
2022-09-02T14:21:01.621Z,74.96
2022-09-02T14:23:33.467Z,75.83
2022-09-02T14:26:01.878Z,77.50
2022-09-02T14:28:34.914Z,73.77
2022-09-02T14:31:07.482Z,74.87
2022-09-02T14:33:41.702Z,74.93
2022-09-02T14:36:23.772Z,73.82
2022-09-02T14:38:57.301Z,72.37
2022-09-02T14:41:28.220Z,72.59
2022-09-02T14:43:58.236Z,71.33
2022-09-02T14:46:31.586Z,70.62
2022-09-02T14:49:04.302Z,69.31
2022-09-02T14:51:50.348Z,69.96
2022-09-02T14:54:37.703Z,72.30
2022-09-02T14:57:06.957Z,72.55
2022-09-02T14:59:34.577Z,71.99
2022-09-02T15:02:02.101Z,73.54
2022-09-02T15:04:28.782Z,75.47
2022-09-02T15:06:56.740Z,74.34
2022-09-02T15:09:23.403Z,73.23
2022-09-02T15:11:53.814Z,72.09
2022-09-02T15:14:20.821Z,71.04
2022-09-02T15:16:48.616Z,73.75
2022-09-02T15:19:15.225Z,74.85
2022-09-02T15:21:41.853Z,73.63
2022-09-02T15:24:08.769Z,72.43
2022-09-02T15:26:35.372Z,72.32
2022-09-02T15:29:03.479Z,74.16
2022-09-02T15:31:31.052Z,76.08
2022-09-02T15:33:58.279Z,77.95
2022-09-02T15:36:26.276Z,78.03
2022-09-02T15:38:53.026Z,78.01
2022-09-02T15:41:22.292Z,76.03
2022-09-02T15:43:51.094Z,73.48
2022-09-02T15:46:28.311Z,74.61
2022-09-02T15:49:00.323Z,75.46
2022-09-02T15:51:29.097Z,74.99
2022-09-02T15:54:05.161Z,76.04
2022-09-02T15:56:33.907Z,76.32
2022-09-02T15:59:03.365Z,78.10
2022-09-02T16:01:34.733Z,77.92
2022-09-02T16:04:02.503Z,78.23
2022-09-02T16:06:29.853Z,78.36
2022-09-02T16:08:56.712Z,77.82
2022-09-02T16:11:24.259Z,76.56
2022-09-02T16:13:51.580Z,76.66
2022-09-02T16:16:18.525Z,77.59
2022-09-02T16:18:50.635Z,79.76
2022-09-02T16:21:18.303Z,79.76
2022-09-02T16:23:44.966Z,80.84
2022-09-02T16:26:30.586Z,80.49
2022-09-02T16:29:03.259Z,78.00
2022-09-02T16:31:32.670Z,78.07
2022-09-02T16:34:03.889Z,76.22
2022-09-02T16:36:33.123Z,77.45
2022-09-02T16:39:01.152Z,77.75
2022-09-02T16:41:35.070Z,79.13
2022-09-02T16:44:07.509Z,78.99
2022-09-02T16:46:36.186Z,77.65
2022-09-02T16:49:03.699Z,76.26
2022-09-02T16:51:30.415Z,75.55
2022-09-02T16:54:02.721Z,74.18
2022-09-02T16:56:30.725Z,74.68
2022-09-02T16:59:02.012Z,74.90
2022-09-02T17:01:32.405Z,74.77
2022-09-02T17:04:00.417Z,76.42
2022-09-02T17:06:28.275Z,75.26
2022-09-02T17:08:55.164Z,75.57
2022-09-02T17:11:26.391Z,76.99
2022-09-02T17:14:00.131Z,76.93
2022-09-02T17:16:29.881Z,77.98
2022-09-02T17:18:56.907Z,78.46
2022-09-02T17:21:28.826Z,77.25
2022-09-02T17:23:56.628Z,76.32
2022-09-02T17:26:26.469Z,75.99
2022-09-02T17:28:56.563Z,75.65
2022-09-02T17:31:30.238Z,75.00
2022-09-02T17:33:59.807Z,75.21
2022-09-02T17:36:28.990Z,75.62
2022-09-02T17:39:02.673Z,75.52
2022-09-02T17:41:48.097Z,75.14
2022-09-02T17:44:15.618Z,75.46
2022-09-02T17:46:44.319Z,74.79
2022-09-02T17:49:17.244Z,73.41
2022-09-02T17:51:45.201Z,75.42
2022-09-02T17:54:13.022Z,75.57
2022-09-02T17:57:00.978Z,76.67
2022-09-02T17:59:33.631Z,76.08
2022-09-02T18:02:15.943Z,74.13
2022-09-02T18:05:12.015Z,73.06
2022-09-02T18:08:02.845Z,70.05
2022-09-02T18:11:04.501Z,71.23
2022-09-02T18:14:08.769Z,75.00
2022-09-02T18:17:04.478Z,73.72
2022-09-02T18:19:49.725Z,73.00
2022-09-02T18:22:31.288Z,72.77
2022-09-02T18:25:21.447Z,73.05
2022-09-02T18:28:12.527Z,72.99
2022-09-02T18:30:51.915Z,74.04
2022-09-02T18:33:30.558Z,72.28
2022-09-02T18:36:36.839Z,72.39
2022-09-02T18:39:14.857Z,74.14
2022-09-02T18:42:02.441Z,73.65
2022-09-02T18:44:36.483Z,72.10
2022-09-02T18:47:10.152Z,72.38
2022-09-02T18:49:39.697Z,70.47
2022-09-02T18:52:10.407Z,71.42
2022-09-02T18:54:57.415Z,72.76
2022-09-02T18:57:29.386Z,72.52
2022-09-02T19:00:10.318Z,71.24
2022-09-02T19:03:03.655Z,72.12
2022-09-02T19:05:32.722Z,74.62
2022-09-02T19:08:40.595Z,73.94
2022-09-02T19:11:13.627Z,73.97
2022-09-02T19:13:49.944Z,74.32
2022-09-02T19:16:42.608Z,74.15
2022-09-02T19:19:10.500Z,73.97
2022-09-02T19:21:51.815Z,74.50
2022-09-02T19:24:26.032Z,73.45
2022-09-02T19:27:07.375Z,73.77
2022-09-02T19:29:37.438Z,73.88
2022-09-02T19:32:04.760Z,76.18
2022-09-02T19:34:37.293Z,75.49
2022-09-02T19:37:04.974Z,74.37
2022-09-02T19:39:34.794Z,73.23
2022-09-02T19:42:01.685Z,72.48
2022-09-02T19:44:28.691Z,73.50
2022-09-02T19:47:42.378Z,71.21
2022-09-02T19:49:42.707Z,71.51
2022-09-02T19:52:12.227Z,69.87
2022-09-02T19:54:40.905Z,71.88
2022-09-02T19:57:07.839Z,72.18
2022-09-02T19:59:34.542Z,72.48
2022-09-02T20:02:03.529Z,71.78
2022-09-02T20:04:31.272Z,71.97
2022-09-02T20:06:58.945Z,71.11
2022-09-02T20:09:29.325Z,70.84
2022-09-02T20:11:56.564Z,73.04
2022-09-02T20:14:23.764Z,72.60
2022-09-02T20:16:57.274Z,71.18
2022-09-02T20:19:24.044Z,70.13
2022-09-02T20:21:53.567Z,72.38
2022-09-02T20:24:31.556Z,70.84
2022-09-02T20:27:02.977Z,70.64
2022-09-02T20:30:09.657Z,73.68
2022-09-02T20:32:43.901Z,70.44
2022-09-02T20:35:38.451Z,69.49
2022-09-02T20:38:26.718Z,71.18
2022-09-02T20:41:09.002Z,72.22
2022-09-02T20:44:04.788Z,72.22
2022-09-02T20:46:36.270Z,70.93
2022-09-02T20:49:08.857Z,70.29
2022-09-02T20:51:55.250Z,69.20
2022-09-02T20:54:31.581Z,69.43
2022-09-02T20:57:26.420Z,67.50
2022-09-02T20:59:58.611Z,68.94
2022-09-02T21:02:37.888Z,69.09
2022-09-02T21:05:22.831Z,69.50
2022-09-02T21:07:58.163Z,69.82
2022-09-02T21:10:32.379Z,71.52
2022-09-02T21:13:17.739Z,71.17
2022-09-02T21:15:47.285Z,71.78
2022-09-02T21:18:26.443Z,71.54
2022-09-02T21:21:02.920Z,71.70
2022-09-02T21:23:38.719Z,70.73
2022-09-02T21:26:17.034Z,70.58
2022-09-02T21:29:13.581Z,69.11
2022-09-02T21:31:48.823Z,69.67
2022-09-02T21:34:40.120Z,70.73
2022-09-02T21:37:10.006Z,71.69
2022-09-02T21:39:42.130Z,69.97
2022-09-02T21:42:41.743Z,69.42
2022-09-02T21:45:26.682Z,68.71
2022-09-02T21:48:06.504Z,70.36
2022-09-02T21:50:45.813Z,71.04
2022-09-02T21:53:24.122Z,71.56
2022-09-02T21:56:15.260Z,72.34
2022-09-02T21:58:55.864Z,71.94
2022-09-02T22:01:23.412Z,70.44
2022-09-02T22:03:56.652Z,69.51
2022-09-02T22:06:42.009Z,71.30
2022-09-02T22:09:22.300Z,71.40
2022-09-02T22:12:05.461Z,71.36
2022-09-02T22:15:07.891Z,70.26
2022-09-02T22:17:37.447Z,70.29
2022-09-02T22:20:07.591Z,72.38
2022-09-02T22:22:42.212Z,69.74
2022-09-02T22:25:14.894Z,71.31
2022-09-02T22:27:47.559Z,70.60
2022-09-02T22:30:15.703Z,71.97
2022-09-02T22:32:48.420Z,71.28
2022-09-02T22:36:00.727Z,70.79
2022-09-02T22:38:53.383Z,69.83
2022-09-02T22:41:34.350Z,70.55
2022-09-02T22:44:18.085Z,69.26
2022-09-02T22:47:07.718Z,68.04
2022-09-02T22:49:59.402Z,67.88
2022-09-02T22:52:54.804Z,68.49
2022-09-02T22:56:01.206Z,69.93
2022-09-02T22:58:56.982Z,68.66
2022-09-02T23:01:53.706Z,69.34
2022-09-02T23:04:39.797Z,70.13
2022-09-02T23:07:07.515Z,69.91
2022-09-02T23:09:37.828Z,69.10
2022-09-02T23:12:13.202Z,68.25
2022-09-02T23:15:10.982Z,70.14
2022-09-02T23:17:46.445Z,70.03
2022-09-02T23:20:19.839Z,69.92
2022-09-02T23:23:04.665Z,69.57
2022-09-02T23:25:52.076Z,70.16
2022-09-02T23:28:32.198Z,69.46
2022-09-02T23:31:12.431Z,67.92
2022-09-02T23:34:00.810Z,68.71
2022-09-02T23:36:40.330Z,70.01
2022-09-02T23:39:22.811Z,68.95
2022-09-02T23:41:49.621Z,69.29
2022-09-02T23:44:16.688Z,68.48
2022-09-02T23:47:20.290Z,69.27
2022-09-02T23:50:02.682Z,69.83
2022-09-02T23:52:43.002Z,68.91
2022-09-02T23:55:23.680Z,69.10
2022-09-02T23:58:08.559Z,68.87
